Accueil
METAR-TAF:

METAR-TAF

Aéroports :

Aéroport international de Yap

Yap, Micronésie

latitude: 09-29N, longitude: 138-05E, altitude: 28 m

Observation

Le bulletin a été fait il y a 24 minutes, à 20:50 UTC
Vent 8 kt de sud-ouest
Température 28°C
Humidité 84%
Pression 1008 hPa
Visibilité: 19.3 km
Quelques nuages à une hauteur de 1600 ft
Nuages fragmentés à une hauteur de 30000 ft

METAR: PTYA 172050Z 22008KT 12SM FEW016 BKN300 28/25 A2976 RMK SLP079 8/101 T02820246 52008

Heure: 07:14 (21:14 UTC)

Prévision

Le bulletin a été fait il y a 3 heures et 36 minutes, à 17:38 UTC
Prévision valable du 17 à 18 UTC au 18 à 18 UTC
Vent 11 kt de sud-ouest
Visibilité: 10 km
Nuages épars à une hauteur de 1600 ft
Nuages fragmentés à une hauteur de 13000 ft
averses à proximité

TAF: PTYA 171738Z 1718/1818 23011KT P6SM VCSH SCT016 BKN130

Observations et prévisions météorologiques de plus de 4000 aéroports (messages METAR et TAF).

Les stations disponibles sont représentées par des disques jaunes et rouges sur la carte.

Passer la souris dessus pour voir le nom de la station.

Cliquer dessus pour voir les observations et prévisions météorologiques.

Pour changer de carte: cliquez sur les boutons verts avec une croix noire pour zoomer, sur le bouton vert avec un tiret pour effectuer un zoom arrière, ou sur les flèches vertes pour les cartes adjacentes.


METAR-TAF: